Time;durP1;ratioP1;P1;durP2;ratioP2;P2;SDS_P1;SDS_P2;PMS_P1;PMS_P2;Temp;Humidity;BMP_temperature;BMP_pressure;BME280_temperature;BME280_humidity;BME280_pressure;Samples;Min_cycle;Max_cycle;Signal;HPM_P1;HPM_P2
2023/10/25 00:02:16;;;;;;;0.80;0.50;;;10.30;99.90;;;;;;5070894;28;20212;-70
2023/10/25 00:04:41;;;;;;;0.90;0.60;;;10.20;99.90;;;;;;5069568;28;20266;-70
2023/10/25 00:07:07;;;;;;;1.10;0.67;;;10.10;99.90;;;;;;5070808;28;20224;-70
2023/10/25 00:09:33;;;;;;;2.30;0.73;;;10.20;99.90;;;;;;5069382;28;20651;-70
2023/10/25 00:11:59;;;;;;;0.87;0.70;;;10.10;99.90;;;;;;5070778;28;20429;-70
2023/10/25 00:14:24;;;;;;;0.90;0.77;;;10.00;99.90;;;;;;5069399;28;20428;-70
2023/10/25 00:16:50;;;;;;;4.97;0.60;;;9.90;99.90;;;;;;5069272;28;20210;-70
2023/10/25 00:19:16;;;;;;;0.90;0.80;;;10.00;99.90;;;;;;5052599;28;20241;-70
2023/10/25 00:21:42;;;;;;;1.30;1.00;;;9.90;99.90;;;;;;5070591;28;20428;-70
2023/10/25 00:24:08;;;;;;;0.90;0.77;;;10.00;99.90;;;;;;5070636;28;20285;-70
2023/10/25 00:26:33;;;;;;;1.00;0.70;;;10.00;99.90;;;;;;5070457;28;20223;-70
2023/10/25 00:28:59;;;;;;;1.00;0.90;;;10.00;99.90;;;;;;5070725;28;20479;-70
2023/10/25 00:31:25;;;;;;;1.20;0.90;;;9.90;99.90;;;;;;5070474;28;20676;-70
2023/10/25 00:33:51;;;;;;;1.13;0.90;;;9.80;99.90;;;;;;5070307;28;20212;-70
2023/10/25 00:36:17;;;;;;;1.10;0.70;;;9.70;99.90;;;;;;5070428;28;20452;-70
2023/10/25 00:38:43;;;;;;;2.20;1.10;;;9.70;99.90;;;;;;5070259;28;20197;-69
2023/10/25 00:41:08;;;;;;;0.80;0.70;;;9.70;99.90;;;;;;5070367;28;20276;-70
2023/10/25 00:43:35;;;;;;;0.80;0.67;;;9.70;99.90;;;;;;5070426;28;20501;-69
2023/10/25 00:46:12;;;;;;;1.90;0.70;;;9.70;99.90;;;;;;5067809;28;20211;-69
2023/10/25 00:48:43;;;;;;;1.00;0.90;;;9.70;99.90;;;;;;5069950;28;20435;-69
2023/10/25 00:51:10;;;;;;;8.53;1.03;;;9.80;99.90;;;;;;5069996;28;20910;-70
2023/10/25 00:53:40;;;;;;;1.30;0.80;;;9.90;99.90;;;;;;5068182;28;20430;-70
2023/10/25 00:56:09;;;;;;;0.80;0.60;;;10.00;99.90;;;;;;5068269;28;20526;-69
2023/10/25 00:58:35;;;;;;;5.63;0.90;;;9.90;99.90;;;;;;5069583;28;20430;-70
2023/10/25 01:01:01;;;;;;;1.63;1.00;;;9.90;99.90;;;;;;5069585;28;20939;-69
2023/10/25 01:03:27;;;;;;;0.90;0.70;;;9.90;99.90;;;;;;5068335;28;20186;-70
2023/10/25 01:05:53;;;;;;;1.10;0.70;;;10.00;99.90;;;;;;5069961;28;20478;-70
2023/10/25 01:08:20;;;;;;;1.83;1.10;;;9.90;99.90;;;;;;5069437;28;20201;-70
2023/10/25 01:10:55;;;;;;;1.20;0.70;;;9.80;99.90;;;;;;5069486;28;20444;-70
2023/10/25 01:13:21;;;;;;;1.07;0.90;;;9.80;99.90;;;;;;5069488;28;20442;-70
2023/10/25 01:15:48;;;;;;;3.90;2.23;;;9.80;99.90;;;;;;5068277;28;20464;-71
2023/10/25 01:18:14;;;;;;;1.53;0.80;;;9.80;99.90;;;;;;5069397;28;20454;-70
2023/10/25 01:20:41;;;;;;;0.90;0.70;;;9.90;99.90;;;;;;5069169;28;20519;-71
2023/10/25 01:23:07;;;;;;;1.10;0.70;;;9.90;99.90;;;;;;5069599;28;20496;-71
2023/10/25 01:25:33;;;;;;;0.90;0.73;;;9.90;99.90;;;;;;5069162;28;20428;-70
2023/10/25 01:27:59;;;;;;;1.10;1.00;;;9.80;99.90;;;;;;5069169;28;20493;-71
2023/10/25 01:30:26;;;;;;;1.30;0.93;;;9.80;99.90;;;;;;5068062;28;20424;-71
2023/10/25 01:32:53;;;;;;;1.83;0.97;;;9.80;99.90;;;;;;5069484;28;20420;-71
2023/10/25 01:35:18;;;;;;;0.90;0.73;;;9.70;99.90;;;;;;5069437;28;20419;-71
2023/10/25 01:37:44;;;;;;;1.30;1.03;;;9.70;99.90;;;;;;5069542;28;20960;-71
2023/10/25 01:40:10;;;;;;;1.13;0.80;;;9.70;99.90;;;;;;5068178;28;20274;-71
2023/10/25 01:42:36;;;;;;;1.63;0.70;;;9.60;99.90;;;;;;5069775;28;20193;-71
2023/10/25 01:45:02;;;;;;;2.13;1.00;;;9.60;99.90;;;;;;5068167;28;20740;-71
2023/10/25 01:47:28;;;;;;;1.13;0.90;;;9.60;99.90;;;;;;5067888;28;20221;-70
2023/10/25 01:49:54;;;;;;;1.27;0.90;;;9.60;99.90;;;;;;5069596;28;20181;-70
2023/10/25 01:52:19;;;;;;;0.90;0.80;;;9.50;99.90;;;;;;5068730;28;20938;-70
2023/10/25 01:54:46;;;;;;;0.83;0.60;;;9.60;99.90;;;;;;5067305;28;20517;-70
2023/10/25 01:57:12;;;;;;;2.57;0.80;;;9.60;99.90;;;;;;5068638;28;20203;-70
2023/10/25 01:59:38;;;;;;;2.13;0.90;;;9.60;99.90;;;;;;5068652;28;20435;-71
2023/10/25 02:02:04;;;;;;;1.10;0.90;;;9.60;99.90;;;;;;5068466;28;20453;-70
2023/10/25 02:04:30;;;;;;;1.10;0.90;;;9.50;99.90;;;;;;5068482;28;20204;-71
2023/10/25 02:06:55;;;;;;;1.10;0.73;;;9.50;99.90;;;;;;5066810;28;20477;-71
2023/10/25 02:09:21;;;;;;;0.80;0.80;;;9.40;99.90;;;;;;5067058;28;20224;-70
2023/10/25 02:11:47;;;;;;;1.10;0.90;;;9.40;99.90;;;;;;5066827;28;20190;-70
2023/10/25 02:14:13;;;;;;;0.93;0.83;;;9.30;99.90;;;;;;5066933;28;20428;-70
2023/10/25 02:16:39;;;;;;;2.30;0.70;;;9.30;99.90;;;;;;5068561;28;20525;-71
2023/10/25 02:19:05;;;;;;;1.80;1.10;;;9.30;99.90;;;;;;5068330;28;21027;-70
2023/10/25 02:21:35;;;;;;;0.87;0.83;;;9.30;99.90;;;;;;5068223;28;20276;-71
2023/10/25 02:24:02;;;;;;;1.53;0.97;;;9.20;99.90;;;;;;5068280;28;20293;-71
2023/10/25 02:26:28;;;;;;;2.30;1.10;;;9.20;99.90;;;;;;5066407;28;20478;-70
2023/10/25 02:28:55;;;;;;;1.03;0.93;;;9.10;99.90;;;;;;5068163;28;21018;-70
2023/10/25 02:31:20;;;;;;;1.20;1.10;;;9.00;99.90;;;;;;5068261;28;20645;-70
2023/10/25 02:33:46;;;;;;;1.10;1.00;;;8.90;99.90;;;;;;5068101;28;20950;-71
2023/10/25 02:36:12;;;;;;;1.63;1.53;;;8.90;99.90;;;;;;5068083;28;20192;-71
2023/10/25 02:38:37;;;;;;;2.13;1.57;;;8.80;99.90;;;;;;5068006;28;20311;-71
2023/10/25 02:41:03;;;;;;;1.47;1.37;;;8.70;99.90;;;;;;5050124;28;20234;-70
2023/10/25 02:43:29;;;;;;;3.57;1.60;;;8.50;99.90;;;;;;5068291;28;20194;-71
2023/10/25 02:46:02;;;;;;;1.40;1.27;;;8.50;99.90;;;;;;5067987;28;20300;-71
2023/10/25 02:48:28;;;;;;;1.77;1.67;;;8.50;99.90;;;;;;5067891;28;20288;-71
2023/10/25 02:50:54;;;;;;;1.77;1.40;;;8.50;99.90;;;;;;5068272;28;20509;-71
2023/10/25 02:53:19;;;;;;;1.70;1.60;;;8.50;99.90;;;;;;5068230;28;20421;-70
2023/10/25 02:55:47;;;;;;;1.60;1.50;;;8.60;99.90;;;;;;5067021;28;20187;-70
2023/10/25 02:58:13;;;;;;;1.50;1.40;;;8.70;99.90;;;;;;5068147;28;20307;-70
2023/10/25 03:00:39;;;;;;;2.30;2.03;;;8.70;99.90;;;;;;5068345;28;20987;-70
2023/10/25 03:03:04;;;;;;;8.50;2.13;;;8.80;99.90;;;;;;5068388;28;20445;-70
2023/10/25 03:05:31;;;;;;;1.70;1.60;;;8.80;99.90;;;;;;5068477;28;20483;-70
2023/10/25 03:07:56;;;;;;;2.23;2.03;;;8.80;99.90;;;;;;5069230;28;20641;-70
2023/10/25 03:10:22;;;;;;;1.80;1.70;;;8.70;99.90;;;;;;5071530;28;20426;-70
2023/10/25 03:12:48;;;;;;;2.50;1.80;;;8.70;99.90;;;;;;5072721;28;20474;-70
2023/10/25 03:15:14;;;;;;;2.03;1.93;;;8.70;99.90;;;;;;5072685;28;20209;-70
2023/10/25 03:17:39;;;;;;;2.07;1.90;;;8.70;99.90;;;;;;5072468;28;20488;-71
2023/10/25 03:20:05;;;;;;;3.93;1.60;;;8.70;99.90;;;;;;5072645;28;20191;-70
2023/10/25 03:22:32;;;;;;;2.20;1.93;;;8.70;99.90;;;;;;5071205;28;20693;-70
2023/10/25 03:24:57;;;;;;;2.00;1.90;;;8.80;99.90;;;;;;5072585;28;20422;-70
2023/10/25 03:27:23;;;;;;;2.20;2.00;;;8.90;99.90;;;;;;5072393;28;20470;-71
2023/10/25 03:29:49;;;;;;;2.53;2.10;;;9.00;99.90;;;;;;5071298;28;20187;-70
2023/10/25 03:32:14;;;;;;;2.40;2.20;;;8.90;99.90;;;;;;5072533;28;20191;-70
2023/10/25 03:34:41;;;;;;;2.57;2.37;;;9.00;99.90;;;;;;5072355;28;20727;-70
2023/10/25 03:37:06;;;;;;;2.70;2.50;;;9.00;99.90;;;;;;5072226;28;20202;-71
2023/10/25 03:39:32;;;;;;;3.27;2.00;;;9.10;99.90;;;;;;5071958;28;21283;-70
2023/10/25 03:41:58;;;;;;;3.20;2.47;;;9.10;99.90;;;;;;5071704;28;20175;-70
2023/10/25 03:44:23;;;;;;;2.53;2.33;;;9.10;99.90;;;;;;5070288;28;20244;-69
2023/10/25 03:46:49;;;;;;;1.87;1.77;;;9.10;99.90;;;;;;5071363;28;20219;-70
2023/10/25 03:49:14;;;;;;;2.20;2.00;;;9.10;99.90;;;;;;5070114;28;20184;-69
2023/10/25 03:51:40;;;;;;;3.33;2.07;;;9.10;99.90;;;;;;5071443;28;20185;-70
2023/10/25 03:54:06;;;;;;;2.77;2.10;;;9.20;99.90;;;;;;5071408;28;20647;-69
2023/10/25 03:56:31;;;;;;;2.20;2.10;;;9.20;99.90;;;;;;5071011;28;20187;-70
2023/10/25 03:58:57;;;;;;;2.07;1.90;;;9.10;99.90;;;;;;5069812;28;20575;-69
2023/10/25 04:01:23;;;;;;;2.07;1.97;;;9.10;99.90;;;;;;5070848;28;20276;-69
2023/10/25 04:03:48;;;;;;;2.77;2.37;;;9.10;99.90;;;;;;5071069;28;20192;-69
2023/10/25 04:06:14;;;;;;;6.13;2.30;;;9.20;99.90;;;;;;5070857;28;20205;-69
2023/10/25 04:08:39;;;;;;;2.57;2.30;;;9.10;99.90;;;;;;5069486;28;20201;-69
2023/10/25 04:11:05;;;;;;;4.00;3.60;;;9.10;99.90;;;;;;5070929;28;20175;-70
2023/10/25 04:13:32;;;;;;;4.40;3.03;;;9.20;99.90;;;;;;5069889;28;20834;-70
2023/10/25 04:15:59;;;;;;;3.77;3.40;;;9.10;99.90;;;;;;5069542;28;20180;-69
2023/10/25 04:18:27;;;;;;;3.20;2.90;;;9.20;99.90;;;;;;5069478;28;20437;-70
2023/10/25 04:20:53;;;;;;;3.40;3.10;;;9.20;99.90;;;;;;5067956;28;20418;-69
2023/10/25 04:23:19;;;;;;;3.83;3.33;;;9.20;99.90;;;;;;5069610;28;21059;-69
2023/10/25 04:25:45;;;;;;;4.27;3.87;;;9.20;99.90;;;;;;5067696;28;20428;-69
2023/10/25 04:28:11;;;;;;;3.80;3.20;;;9.20;99.90;;;;;;5069290;28;20442;-69
2023/10/25 04:30:36;;;;;;;4.00;3.60;;;9.30;99.90;;;;;;5069093;28;20995;-69
2023/10/25 04:33:02;;;;;;;3.67;3.23;;;9.30;99.90;;;;;;5067553;28;20409;-69
2023/10/25 04:35:29;;;;;;;4.83;4.30;;;9.30;99.90;;;;;;5069077;28;20178;-71
2023/10/25 04:37:55;;;;;;;3.90;3.40;;;9.40;99.90;;;;;;5067657;28;20525;-69
2023/10/25 04:40:22;;;;;;;6.30;4.03;;;9.40;99.90;;;;;;5068762;28;20499;-69
2023/10/25 04:42:50;;;;;;;3.63;3.30;;;9.40;99.90;;;;;;5068596;28;20857;-69
2023/10/25 04:45:16;;;;;;;3.70;3.33;;;9.30;99.90;;;;;;5068922;28;20410;-69
2023/10/25 04:47:41;;;;;;;4.17;3.77;;;9.50;99.90;;;;;;5067359;28;20473;-70
2023/10/25 04:50:07;;;;;;;2.83;2.63;;;9.50;99.90;;;;;;5068851;28;20410;-70
2023/10/25 04:52:33;;;;;;;3.13;2.70;;;9.50;99.90;;;;;;5068646;28;20188;-71
2023/10/25 04:54:59;;;;;;;6.57;3.70;;;9.50;99.90;;;;;;5067016;28;20426;-69
2023/10/25 04:57:24;;;;;;;3.70;3.40;;;9.50;99.90;;;;;;5068388;28;20626;-71
2023/10/25 04:59:50;;;;;;;3.23;2.93;;;9.60;99.90;;;;;;5067115;28;20290;-70
2023/10/25 05:02:16;;;;;;;3.30;2.53;;;9.60;99.90;;;;;;5067189;28;20195;-70
2023/10/25 05:04:42;;;;;;;4.30;3.80;;;9.60;99.90;;;;;;5067000;28;20187;-70
2023/10/25 05:07:08;;;;;;;4.20;3.23;;;9.70;99.90;;;;;;5067967;28;20216;-69
2023/10/25 05:09:34;;;;;;;3.87;3.57;;;9.70;99.90;;;;;;5066815;28;20204;-70
2023/10/25 05:12:06;;;;;;;3.00;2.70;;;9.70;99.90;;;;;;5068371;28;20797;-70
2023/10/25 05:14:33;;;;;;;3.40;3.10;;;9.70;99.90;;;;;;5066585;28;20457;-70
2023/10/25 05:17:00;;;;;;;4.13;3.67;;;9.70;99.90;;;;;;5067955;28;20444;-70
2023/10/25 05:19:26;;;;;;;3.50;3.13;;;9.80;99.90;;;;;;5068069;28;20419;-70
2023/10/25 05:21:54;;;;;;;3.63;3.33;;;9.80;99.90;;;;;;5068209;28;20423;-70
2023/10/25 05:24:20;;;;;;;3.10;2.80;;;9.80;99.90;;;;;;5067961;28;20921;-70
2023/10/25 05:26:46;;;;;;;3.67;3.20;;;9.70;99.90;;;;;;5067765;28;20497;-70
2023/10/25 05:29:12;;;;;;;4.30;3.80;;;9.80;99.90;;;;;;5068357;28;20908;-70
2023/10/25 05:31:44;;;;;;;3.13;2.83;;;9.80;99.90;;;;;;5066301;28;20428;-70
2023/10/25 05:34:11;;;;;;;3.33;3.07;;;9.90;99.90;;;;;;5068780;28;20523;-71
2023/10/25 05:36:38;;;;;;;3.60;2.80;;;9.90;99.90;;;;;;5067005;28;20500;-70
2023/10/25 05:39:05;;;;;;;3.40;3.10;;;9.90;99.90;;;;;;5068066;28;20602;-70
2023/10/25 05:41:36;;;;;;;2.97;2.73;;;9.90;99.90;;;;;;5067255;28;20951;-70
2023/10/25 05:44:13;;;;;;;3.67;3.37;;;10.00;99.90;;;;;;5068541;28;20460;-70
2023/10/25 05:46:38;;;;;;;3.60;3.30;;;9.80;99.90;;;;;;5066824;28;20480;-71
2023/10/25 05:49:04;;;;;;;5.00;3.30;;;9.90;99.90;;;;;;5068462;28;20419;-70
2023/10/25 05:51:31;;;;;;;3.90;3.60;;;9.90;99.90;;;;;;5066937;28;20225;-70
2023/10/25 05:53:56;;;;;;;4.37;3.57;;;9.90;99.90;;;;;;5068374;28;20473;-70
2023/10/25 05:56:28;;;;;;;3.40;3.10;;;9.90;99.90;;;;;;5066878;28;20828;-70
2023/10/25 05:58:55;;;;;;;5.23;3.37;;;9.90;99.90;;;;;;5068130;28;21244;-70
2023/10/25 06:01:34;;;;;;;3.97;3.10;;;10.00;99.90;;;;;;5066699;28;20454;-70
2023/10/25 06:04:03;;;;;;;4.07;3.67;;;10.00;99.90;;;;;;5067967;28;20410;-70
2023/10/25 06:06:28;;;;;;;4.10;3.57;;;10.00;99.90;;;;;;5067869;28;20465;-70
2023/10/25 06:08:54;;;;;;;4.27;2.97;;;10.10;99.90;;;;;;5066537;28;20428;-70
2023/10/25 06:11:20;;;;;;;3.10;2.90;;;10.10;99.90;;;;;;5068026;28;20518;-70
2023/10/25 06:13:45;;;;;;;3.20;2.90;;;10.20;99.90;;;;;;5067754;28;20235;-71
2023/10/25 06:16:13;;;;;;;2.97;2.67;;;10.20;99.90;;;;;;5067969;28;20919;-71
2023/10/25 06:18:39;;;;;;;3.00;2.73;;;10.30;99.90;;;;;;5068082;28;20203;-70
2023/10/25 06:21:04;;;;;;;2.60;2.40;;;10.30;99.90;;;;;;5068130;28;20519;-70
2023/10/25 06:23:32;;;;;;;3.90;3.30;;;10.30;99.90;;;;;;5068031;28;20183;-70
2023/10/25 06:25:57;;;;;;;3.50;3.20;;;10.30;99.90;;;;;;5066412;28;20224;-70
2023/10/25 06:28:23;;;;;;;3.83;3.30;;;10.30;99.90;;;;;;5066318;28;20454;-70
2023/10/25 06:30:48;;;;;;;6.40;3.00;;;10.30;99.90;;;;;;5067896;28;20238;-70
2023/10/25 06:33:14;;;;;;;3.70;3.40;;;10.30;99.90;;;;;;5067858;28;20708;-71
2023/10/25 06:35:40;;;;;;;3.83;3.23;;;10.40;99.90;;;;;;5067945;28;20179;-70
2023/10/25 06:38:05;;;;;;;4.50;3.90;;;10.40;99.90;;;;;;5067723;28;20236;-71
2023/10/25 06:40:31;;;;;;;3.70;3.40;;;10.50;99.90;;;;;;5066458;28;20191;-71
2023/10/25 06:42:57;;;;;;;6.00;2.93;;;10.40;99.90;;;;;;5066803;28;20279;-71
2023/10/25 06:45:23;;;;;;;3.43;3.13;;;10.50;99.90;;;;;;5067564;28;20180;-70
2023/10/25 06:47:49;;;;;;;5.77;3.30;;;10.50;99.90;;;;;;5067110;28;20523;-71
2023/10/25 06:50:15;;;;;;;4.63;3.50;;;10.50;99.90;;;;;;5067554;28;20192;-70
2023/10/25 06:52:41;;;;;;;2.50;2.30;;;10.40;99.90;;;;;;5067294;28;20420;-70
2023/10/25 06:55:07;;;;;;;3.20;2.90;;;10.40;99.90;;;;;;5067148;28;20446;-70
2023/10/25 06:57:33;;;;;;;3.40;3.10;;;10.40;99.90;;;;;;5067089;28;20442;-70
2023/10/25 07:00:00;;;;;;;3.67;3.30;;;10.40;99.90;;;;;;5065918;28;20431;-70
2023/10/25 07:02:41;;;;;;;3.13;2.93;;;10.40;99.90;;;;;;5066860;28;20448;-70
2023/10/25 07:05:12;;;;;;;2.93;2.73;;;10.40;99.90;;;;;;5067679;28;20405;-69
2023/10/25 07:07:38;;;;;;;2.70;2.50;;;10.50;99.90;;;;;;5067394;28;20560;-70
2023/10/25 07:10:06;;;;;;;2.70;2.50;;;10.50;99.90;;;;;;5067373;28;20807;-70
2023/10/25 07:12:33;;;;;;;4.40;2.03;;;10.60;99.90;;;;;;5065854;28;20784;-71
2023/10/25 07:14:59;;;;;;;7.70;2.63;;;10.70;99.90;;;;;;5067335;28;20490;-70
2023/10/25 07:17:24;;;;;;;3.10;2.80;;;10.70;99.90;;;;;;5065951;28;20917;-70
2023/10/25 07:19:50;;;;;;;2.30;2.17;;;10.90;99.90;;;;;;5067315;28;20270;-70
2023/10/25 07:22:16;;;;;;;2.67;2.47;;;10.90;99.90;;;;;;5065944;28;20200;-70
2023/10/25 07:24:41;;;;;;;2.33;2.20;;;10.90;99.90;;;;;;5067402;28;20280;-70
2023/10/25 07:27:07;;;;;;;2.87;2.40;;;11.00;99.90;;;;;;5067385;28;20466;-70
2023/10/25 07:29:36;;;;;;;4.50;2.10;;;10.90;99.90;;;;;;5067408;28;20264;-70
2023/10/25 07:32:05;;;;;;;2.00;1.80;;;11.00;99.90;;;;;;5066076;28;20177;-70
2023/10/25 07:34:30;;;;;;;2.70;2.50;;;11.10;99.90;;;;;;5065884;28;20414;-70
2023/10/25 07:36:56;;;;;;;2.20;2.00;;;11.10;99.90;;;;;;5067163;28;20580;-70
2023/10/25 07:39:22;;;;;;;2.07;1.87;;;11.20;99.90;;;;;;5066921;28;20189;-70
2023/10/25 07:41:47;;;;;;;2.37;1.97;;;11.30;99.90;;;;;;5067247;28;20193;-70
2023/10/25 07:44:13;;;;;;;1.93;1.77;;;11.30;99.90;;;;;;5066655;28;20642;-70
2023/10/25 07:46:39;;;;;;;2.13;2.03;;;11.50;99.90;;;;;;5066556;28;20237;-70
2023/10/25 07:49:04;;;;;;;2.40;2.20;;;11.50;99.90;;;;;;5066542;28;20182;-69
2023/10/25 07:51:30;;;;;;;2.97;2.37;;;11.70;99.90;;;;;;5066595;28;20188;-71
2023/10/25 07:53:56;;;;;;;2.37;2.13;;;11.80;99.90;;;;;;5066836;28;20599;-71
2023/10/25 07:56:23;;;;;;;2.00;1.90;;;12.10;99.90;;;;;;5068559;28;20279;-71
2023/10/25 07:58:48;;;;;;;2.17;2.00;;;12.30;99.90;;;;;;5069847;28;20198;-70
2023/10/25 08:01:14;;;;;;;2.77;2.50;;;12.40;99.90;;;;;;5069692;28;20786;-70
2023/10/25 08:03:40;;;;;;;2.40;2.20;;;12.60;99.90;;;;;;5068296;28;20179;-70
2023/10/25 08:06:05;;;;;;;1.90;1.80;;;12.60;99.90;;;;;;5068243;28;20692;-70
2023/10/25 08:08:32;;;;;;;2.90;2.70;;;12.50;99.90;;;;;;5069689;28;20194;-70
2023/10/25 08:11:02;;;;;;;2.43;2.00;;;12.50;99.90;;;;;;5069712;28;20170;-70
2023/10/25 08:13:29;;;;;;;1.90;1.80;;;12.40;99.90;;;;;;5069519;28;20412;-70
2023/10/25 08:15:59;;;;;;;2.20;2.00;;;12.20;99.90;;;;;;5068150;28;20421;-71
2023/10/25 08:18:27;;;;;;;1.90;1.80;;;12.10;99.90;;;;;;5069403;28;20440;-70
2023/10/25 08:20:54;;;;;;;3.20;2.00;;;12.20;99.90;;;;;;5069534;28;20454;-70
2023/10/25 08:23:19;;;;;;;2.00;1.90;;;12.20;99.90;;;;;;5067779;28;20855;-70
2023/10/25 08:25:45;;;;;;;1.70;1.60;;;12.20;99.90;;;;;;5069408;28;20529;-71
2023/10/25 08:28:10;;;;;;;1.87;1.77;;;12.20;99.90;;;;;;5069291;28;20252;-70
2023/10/25 08:30:36;;;;;;;1.97;1.87;;;12.30;99.90;;;;;;5069445;28;20204;-70
2023/10/25 08:33:02;;;;;;;1.77;1.67;;;12.30;99.90;;;;;;5067807;28;20182;-70
2023/10/25 08:35:27;;;;;;;2.20;1.70;;;12.30;99.90;;;;;;5069326;28;20181;-71
2023/10/25 08:37:53;;;;;;;1.60;1.50;;;12.30;99.90;;;;;;5069065;28;20206;-70
2023/10/25 08:40:19;;;;;;;1.90;1.70;;;12.40;99.90;;;;;;5069462;28;20203;-70
2023/10/25 08:42:45;;;;;;;1.90;1.80;;;12.40;99.90;;;;;;5067784;28;20540;-71
2023/10/25 08:45:12;;;;;;;1.77;1.67;;;12.50;99.90;;;;;;5069049;28;20431;-71
2023/10/25 08:47:39;;;;;;;2.47;1.60;;;12.40;99.90;;;;;;5067557;28;20222;-70
2023/10/25 08:50:05;;;;;;;1.80;1.70;;;12.50;99.90;;;;;;5067384;28;20432;-70
2023/10/25 08:52:31;;;;;;;1.77;1.40;;;12.40;99.90;;;;;;5067587;28;20467;-70
2023/10/25 08:54:57;;;;;;;1.80;1.47;;;12.30;99.90;;;;;;5067567;28;21072;-70
2023/10/25 08:57:22;;;;;;;1.20;1.07;;;12.30;99.90;;;;;;5069260;28;20452;-71
2023/10/25 08:59:51;;;;;;;2.10;1.50;;;12.30;99.90;;;;;;5067680;28;20186;-71
2023/10/25 09:02:17;;;;;;;2.53;1.40;;;12.30;99.90;;;;;;5068999;28;20219;-71
2023/10/25 09:05:06;;;;;;;1.70;1.60;;;12.10;99.90;;;;;;5067255;28;20461;-70
2023/10/25 09:07:36;;;;;;;2.10;2.00;;;12.30;99.90;;;;;;5068182;28;20211;-70
2023/10/25 09:10:03;;;;;;;2.80;2.60;;;12.30;99.90;;;;;;5067060;28;20464;-70
2023/10/25 09:12:29;;;;;;;2.40;2.20;;;12.20;99.90;;;;;;5067053;28;20433;-70
2023/10/25 09:14:55;;;;;;;2.57;2.30;;;12.30;99.90;;;;;;5067111;28;20471;-70
2023/10/25 09:17:21;;;;;;;2.30;1.87;;;12.30;99.90;;;;;;5068430;28;20452;-70
2023/10/25 09:19:50;;;;;;;3.20;2.90;;;12.30;99.90;;;;;;5068419;28;20182;-70
2023/10/25 09:22:28;;;;;;;3.20;2.00;;;12.30;99.90;;;;;;5068290;28;20740;-70
2023/10/25 09:24:55;;;;;;;2.40;2.13;;;12.40;99.90;;;;;;5068215;28;20565;-70
2023/10/25 09:27:25;;;;;;;3.97;2.10;;;12.30;99.90;;;;;;5068215;28;20479;-70
2023/10/25 09:29:51;;;;;;;2.10;1.90;;;12.40;99.90;;;;;;5068069;28;20439;-71
2023/10/25 09:32:18;;;;;;;2.20;2.00;;;12.40;99.90;;;;;;5068338;28;20615;-70
2023/10/25 09:34:48;;;;;;;2.60;2.40;;;12.50;99.90;;;;;;5068286;28;20853;-70
2023/10/25 09:37:15;;;;;;;3.07;1.90;;;12.50;99.90;;;;;;5066772;28;20436;-71
2023/10/25 09:39:41;;;;;;;1.63;1.53;;;12.50;99.90;;;;;;5067780;28;20421;-71
2023/10/25 09:42:12;;;;;;;2.10;1.90;;;12.40;99.90;;;;;;5068029;28;20420;-71
2023/10/25 09:44:47;;;;;;;2.20;1.80;;;12.40;99.90;;;;;;5068180;28;20443;-70
2023/10/25 09:47:15;;;;;;;1.90;1.80;;;12.50;99.90;;;;;;5068136;28;20464;-70
2023/10/25 09:49:52;;;;;;;2.40;2.20;;;12.40;99.90;;;;;;5066398;28;20455;-70
2023/10/25 09:52:27;;;;;;;1.73;1.63;;;12.40;99.90;;;;;;5068337;28;20422;-70
2023/10/25 09:55:02;;;;;;;2.50;2.30;;;12.50;99.90;;;;;;5068589;28;20449;-70
2023/10/25 09:57:30;;;;;;;4.07;2.10;;;12.70;99.90;;;;;;5068190;28;20437;-71
2023/10/25 09:59:56;;;;;;;2.23;1.93;;;12.80;99.90;;;;;;5050355;28;20433;-71
2023/10/25 10:02:34;;;;;;;1.90;1.73;;;12.90;99.90;;;;;;5068097;28;20459;-70
2023/10/25 10:05:16;;;;;;;4.03;2.03;;;13.00;99.90;;;;;;5068053;28;20413;-70
2023/10/25 10:08:21;;;;;;;1.70;1.53;;;13.00;99.90;;;;;;5067980;28;20492;-69
2023/10/25 10:10:56;;;;;;;8.37;2.07;;;13.00;99.90;;;;;;5063975;28;20506;-70
2023/10/25 10:13:22;;;;;;;2.30;2.10;;;13.10;99.90;;;;;;5067063;28;20423;-69
2023/10/25 10:15:57;;;;;;;1.90;1.70;;;13.10;99.90;;;;;;5066951;28;20441;-69
2023/10/25 10:18:22;;;;;;;1.53;1.40;;;13.30;99.90;;;;;;5066534;28;20465;-70
2023/10/25 10:21:04;;;;;;;1.70;1.60;;;13.50;99.90;;;;;;5068067;28;20518;-70
2023/10/25 10:23:38;;;;;;;4.33;1.80;;;13.70;99.90;;;;;;5068504;28;20174;-70
2023/10/25 10:26:04;;;;;;;2.77;1.50;;;13.70;99.90;;;;;;5067976;28;20427;-71
2023/10/25 10:28:56;;;;;;;2.70;1.40;;;13.80;99.90;;;;;;5068106;28;20437;-71
2023/10/25 10:31:22;;;;;;;1.60;1.50;;;13.80;99.90;;;;;;5064446;28;20475;-71
2023/10/25 10:33:49;;;;;;;1.53;1.40;;;14.50;99.90;;;;;;5068281;28;20958;-70
2023/10/25 10:36:25;;;;;;;2.07;1.40;;;14.80;99.90;;;;;;5068465;28;20205;-71
2023/10/25 10:39:10;;;;;;;1.73;1.43;;;14.50;99.90;;;;;;5068401;28;20925;-71
2023/10/25 10:41:36;;;;;;;4.50;1.33;;;14.30;99.90;;;;;;5068356;28;20409;-71
2023/10/25 10:44:02;;;;;;;2.30;1.63;;;14.30;99.90;;;;;;5068169;28;20422;-72
2023/10/25 10:46:30;;;;;;;1.10;1.00;;;14.30;99.90;;;;;;5067957;28;20209;-72
2023/10/25 10:49:01;;;;;;;9.60;1.60;;;14.20;99.90;;;;;;5068155;28;20180;-70
2023/10/25 10:51:27;;;;;;;1.67;1.10;;;14.20;99.90;;;;;;5068210;28;20417;-71
2023/10/25 10:53:53;;;;;;;1.40;1.20;;;14.30;99.90;;;;;;5066685;28;20413;-71
2023/10/25 10:56:19;;;;;;;1.70;1.13;;;14.30;99.90;;;;;;5068001;28;20444;-71
2023/10/25 10:58:44;;;;;;;1.37;1.03;;;14.30;99.90;;;;;;5066652;28;20752;-70
2023/10/25 11:01:11;;;;;;;1.20;0.90;;;14.30;99.90;;;;;;5066654;28;20191;-71
2023/10/25 11:03:40;;;;;;;2.43;1.20;;;14.30;99.90;;;;;;5068401;28;20780;-71
2023/10/25 11:06:08;;;;;;;3.33;1.57;;;14.20;99.90;;;;;;5066524;28;20552;-71
2023/10/25 11:08:33;;;;;;;1.77;1.23;;;14.20;99.90;;;;;;5068185;28;20447;-71
2023/10/25 11:11:00;;;;;;;3.53;1.47;;;14.30;99.90;;;;;;5068132;28;20425;-71
2023/10/25 11:13:28;;;;;;;1.10;0.90;;;14.30;99.90;;;;;;5068028;28;20257;-71
2023/10/25 11:16:08;;;;;;;1.50;0.90;;;14.40;99.90;;;;;;5066497;28;20928;-71
2023/10/25 11:18:34;;;;;;;1.53;1.03;;;14.50;99.90;;;;;;5066373;28;20444;-70
2023/10/25 11:21:01;;;;;;;1.53;1.43;;;14.50;99.90;;;;;;5066619;28;20413;-70
2023/10/25 11:23:26;;;;;;;2.07;0.97;;;14.50;99.90;;;;;;5068179;28;20414;-70
2023/10/25 11:25:53;;;;;;;1.00;0.90;;;14.50;99.90;;;;;;5067936;28;20416;-71
2023/10/25 11:28:19;;;;;;;1.00;0.90;;;14.60;99.90;;;;;;5067782;28;20203;-71
2023/10/25 11:30:48;;;;;;;1.20;1.00;;;14.60;99.90;;;;;;5071199;28;20405;-70
2023/10/25 11:33:15;;;;;;;2.80;1.20;;;14.70;99.90;;;;;;5071824;28;20417;-71
2023/10/25 11:35:44;;;;;;;0.90;0.73;;;14.80;99.90;;;;;;5070246;28;20474;-71
2023/10/25 11:38:10;;;;;;;3.43;0.93;;;15.00;99.90;;;;;;5070500;28;20890;-72
2023/10/25 11:40:47;;;;;;;2.13;0.80;;;15.10;99.90;;;;;;5070222;28;20462;-71
2023/10/25 11:43:13;;;;;;;2.50;1.00;;;15.20;99.90;;;;;;5071562;28;20421;-72
2023/10/25 11:45:40;;;;;;;0.90;0.60;;;15.30;99.90;;;;;;5071738;28;20426;-71
2023/10/25 11:48:07;;;;;;;2.50;0.90;;;15.50;99.90;;;;;;5071286;28;20552;-71
2023/10/25 11:50:33;;;;;;;1.93;0.73;;;15.50;99.90;;;;;;5071549;28;20411;-71
2023/10/25 11:52:58;;;;;;;1.00;0.80;;;15.40;99.90;;;;;;5071540;28;20470;-71
2023/10/25 11:55:25;;;;;;;3.03;0.67;;;15.40;99.90;;;;;;5071542;28;20949;-71
2023/10/25 11:57:51;;;;;;;0.83;0.67;;;15.40;99.90;;;;;;5070189;28;20211;-70
2023/10/25 12:00:17;;;;;;;1.30;0.80;;;15.40;99.90;;;;;;5071444;28;20430;-71
2023/10/25 12:02:43;;;;;;;1.47;0.93;;;15.40;99.90;;;;;;5071241;28;20948;-70
2023/10/25 12:05:10;;;;;;;3.80;0.80;;;15.40;99.90;;;;;;5069872;28;20431;-71
2023/10/25 12:07:36;;;;;;;3.73;1.07;;;15.50;99.90;;;;;;5069547;28;21144;-70
2023/10/25 12:10:04;;;;;;;1.07;0.83;;;15.50;99.90;;;;;;5070842;28;20492;-70
2023/10/25 12:12:29;;;;;;;0.90;0.60;;;15.50;99.90;;;;;;5070979;28;20920;-70
2023/10/25 12:14:55;;;;;;;0.90;0.60;;;15.60;99.90;;;;;;5070814;28;20501;-71
2023/10/25 12:17:21;;;;;;;0.87;0.73;;;15.60;99.90;;;;;;5070608;28;20209;-70
2023/10/25 12:19:49;;;;;;;1.37;0.70;;;15.60;99.90;;;;;;5069323;28;20296;-70
2023/10/25 12:22:15;;;;;;;1.10;0.60;;;15.60;99.90;;;;;;5070491;28;20666;-70
2023/10/25 12:24:42;;;;;;;3.40;0.73;;;15.60;99.90;;;;;;5070459;28;20407;-70
2023/10/25 12:27:08;;;;;;;2.07;0.63;;;15.60;99.90;;;;;;5070327;28;20460;-71
2023/10/25 12:29:34;;;;;;;0.90;0.50;;;15.60;99.90;;;;;;5070345;28;20414;-71
2023/10/25 12:32:00;;;;;;;0.90;0.67;;;15.60;99.90;;;;;;5070334;28;20408;-71
2023/10/25 12:34:26;;;;;;;0.80;0.43;;;15.60;99.90;;;;;;5068223;28;20418;-71
2023/10/25 12:36:52;;;;;;;1.00;0.60;;;15.70;99.90;;;;;;5069589;28;20532;-71
2023/10/25 12:39:18;;;;;;;1.90;0.60;;;15.80;99.90;;;;;;5067958;28;20201;-71
2023/10/25 12:41:47;;;;;;;1.10;0.60;;;15.70;99.90;;;;;;5066802;28;20201;-71
2023/10/25 12:44:13;;;;;;;2.30;0.80;;;15.70;99.90;;;;;;5069772;28;20411;-71
2023/10/25 12:46:39;;;;;;;2.00;0.60;;;15.70;99.90;;;;;;5070133;28;20538;-70
2023/10/25 12:49:05;;;;;;;0.80;0.50;;;15.70;99.90;;;;;;5069535;28;20184;-70
2023/10/25 12:51:31;;;;;;;2.60;0.60;;;15.70;99.90;;;;;;5069603;28;20430;-71